Time;durP1;ratioP1;P1;durP2;ratioP2;P2;SDS_P1;SDS_P2;PMS_P1;PMS_P2;Temp;Humidity;BMP_temperature;BMP_pressure;BME280_temperature;BME280_humidity;BME280_pressure;Samples;Min_cycle;Max_cycle;Signal;HPM_P1;HPM_P2
2022/01/14 09:59:51;;;;;;;17.90;4.40;;;6.80;99.90;;;;;;6096357;23;20053;-39
2022/01/14 10:02:38;;;;;;;16.87;4.70;;;6.80;99.90;;;;;;6097070;23;20033;-39
2022/01/14 10:05:05;;;;;;;17.30;4.27;;;6.80;99.90;;;;;;6088851;23;20014;-39
2022/01/14 10:07:36;;;;;;;11.05;3.10;;;6.90;99.90;;;;;;6103869;23;20411;-39
2022/01/14 10:10:22;;;;;;;20.50;4.20;;;6.90;99.90;;;;;;6143963;23;20357;-40
2022/01/14 10:12:48;;;;;;;21.03;4.43;;;6.90;99.90;;;;;;6142609;23;20081;-40
2022/01/14 10:15:14;;;;;;;20.77;4.10;;;7.00;99.90;;;;;;6143457;23;20014;-39
2022/01/14 10:17:42;;;;;;;15.93;4.10;;;7.00;99.90;;;;;;6126996;23;20101;-41
2022/01/14 10:20:11;;;;;;;16.97;3.77;;;7.00;99.90;;;;;;6143829;23;20051;-40
2022/01/14 10:22:45;;;;;;;19.43;4.70;;;7.00;99.90;;;;;;6142224;23;20025;-40
2022/01/14 10:25:18;;;;;;;17.77;4.10;;;7.10;99.90;;;;;;6143903;23;20206;-40
2022/01/14 10:27:54;;;;;;;20.03;4.47;;;7.00;99.90;;;;;;6126979;23;20602;-39
2022/01/14 10:30:31;;;;;;;20.40;4.53;;;7.10;99.90;;;;;;6143356;23;20032;-39
2022/01/14 10:33:04;;;;;;;23.50;4.53;;;7.10;99.90;;;;;;6091636;23;20104;-39
2022/01/14 10:35:35;;;;;;;19.10;4.07;;;7.10;99.90;;;;;;6144243;23;20344;-39
2022/01/14 10:38:05;;;;;;;18.55;4.38;;;7.10;99.90;;;;;;6102335;23;20088;-39
2022/01/14 10:40:35;;;;;;;22.00;4.87;;;7.30;99.90;;;;;;6116378;23;20320;-40
2022/01/14 10:43:08;;;;;;;23.10;4.13;;;7.10;99.90;;;;;;6113515;23;20117;-39
2022/01/14 10:45:35;;;;;;;17.87;4.57;;;7.20;99.90;;;;;;6142787;23;20484;-39
2022/01/14 10:48:07;;;;;;;20.87;4.57;;;7.10;99.90;;;;;;6128267;23;20315;-40
2022/01/14 10:50:56;;;;;;;17.47;4.60;;;7.20;99.90;;;;;;6117191;23;20145;-40
2022/01/14 10:53:27;;;;;;;24.70;4.70;;;7.20;99.90;;;;;;6141806;23;20036;-39
2022/01/14 10:56:06;;;;;;;14.73;4.07;;;7.20;99.90;;;;;;6143790;23;20393;-40
2022/01/14 10:58:58;;;;;;;16.53;4.40;;;7.20;99.90;;;;;;6141834;23;20076;-40
2022/01/14 11:01:31;;;;;;;17.90;4.30;;;7.20;99.90;;;;;;6148312;23;20036;-40
2022/01/14 11:04:00;;;;;;;16.30;4.43;;;7.20;99.90;;;;;;6172331;23;20028;-39
2022/01/14 11:06:30;;;;;;;19.13;5.03;;;7.20;99.90;;;;;;6156559;23;20933;-41
2022/01/14 11:09:06;;;;;;;23.83;4.83;;;7.30;99.90;;;;;;6169378;23;20036;-39
2022/01/14 11:11:34;;;;;;;18.83;4.53;;;7.30;99.90;;;;;;6172597;23;20448;-40
2022/01/14 11:14:00;;;;;;;20.70;5.40;;;7.30;99.90;;;;;;6171889;23;20129;-40
2022/01/14 11:16:27;;;;;;;23.50;5.27;;;7.30;99.90;;;;;;6110914;23;20414;-38
2022/01/14 11:18:57;;;;;;;20.40;5.53;;;7.30;99.90;;;;;;6168986;23;20405;-40
2022/01/14 11:24:20;;;;;;;20.83;5.57;;;7.40;99.90;;;;;;6171626;23;20257;-40
2022/01/14 11:26:56;;;;;;;24.17;5.67;;;7.40;99.90;;;;;;6158972;23;20025;-39
2022/01/14 11:29:42;;;;;;;25.33;5.60;;;7.40;99.90;;;;;;6150604;23;20310;-40
2022/01/14 11:32:09;;;;;;;23.07;5.13;;;7.40;99.90;;;;;;6148798;23;20028;-39
2022/01/14 11:34:55;;;;;;;25.83;5.90;;;7.40;99.90;;;;;;6145714;23;20027;-40
2022/01/14 11:37:48;;;;;;;23.57;5.93;;;7.40;99.90;;;;;;6157232;23;20062;-40
2022/01/14 11:40:16;;;;;;;25.90;6.10;;;7.40;99.90;;;;;;6172623;23;20013;-39
2022/01/14 11:42:51;;;;;;;28.73;6.10;;;7.50;99.90;;;;;;6171518;23;20056;-39
2022/01/14 11:45:37;;;;;;;25.80;6.20;;;7.50;99.90;;;;;;6171852;23;20394;-39
2022/01/14 11:48:03;;;;;;;28.40;5.87;;;7.50;99.90;;;;;;6157089;23;20029;-40
2022/01/14 11:50:32;;;;;;;29.73;5.53;;;7.50;99.90;;;;;;6145208;23;20433;-39
2022/01/14 11:52:59;;;;;;;20.07;5.87;;;7.50;99.90;;;;;;6170736;23;20529;-39
2022/01/14 11:55:29;;;;;;;22.13;5.57;;;7.50;99.90;;;;;;6144960;23;20053;-40
2022/01/14 11:58:02;;;;;;;20.13;5.87;;;7.50;99.90;;;;;;6155177;23;20025;-40
2022/01/14 12:00:33;;;;;;;19.37;5.23;;;7.60;99.90;;;;;;6158532;23;20053;-40
2022/01/14 12:03:26;;;;;;;31.27;6.18;;;7.60;99.90;;;;;;6141641;23;20120;-40
2022/01/14 12:06:07;;;;;;;24.27;6.00;;;7.60;99.90;;;;;;6125745;23;20192;-40
2022/01/14 12:09:03;;;;;;;18.30;5.70;;;7.60;99.90;;;;;;6131185;23;20033;-40
2022/01/14 12:11:29;;;;;;;23.57;5.60;;;7.60;99.90;;;;;;6142059;23;20662;-40
2022/01/14 12:14:02;;;;;;;25.83;5.37;;;7.70;99.90;;;;;;6113350;23;20621;-40
2022/01/14 12:18:59;;;;;;;31.58;5.43;;;7.80;99.90;;;;;;6141398;23;20322;-39
2022/01/14 12:21:43;;;;;;;;;;;7.70;99.90;;;;;;6117453;23;20096;-39
2022/01/14 12:24:15;;;;;;;25.40;5.80;;;7.70;99.90;;;;;;6100655;23;19957;-40
2022/01/14 12:26:57;;;;;;;30.10;5.60;;;7.80;99.90;;;;;;6131029;23;20769;-39
2022/01/14 12:29:45;;;;;;;22.33;5.57;;;7.70;99.90;;;;;;6117682;23;20064;-39
2022/01/14 12:32:32;;;;;;;27.57;5.63;;;7.70;99.90;;;;;;6141895;23;20040;-40
2022/01/14 12:35:04;;;;;;;26.00;5.82;;;7.70;99.90;;;;;;6142924;23;20014;-39
2022/01/14 12:37:39;;;;;;;;;;;7.80;99.90;;;;;;6129196;23;20057;-40
2022/01/14 12:40:26;;;;;;;25.03;5.30;;;7.80;99.90;;;;;;6147539;23;20315;-39
2022/01/14 12:43:13;;;;;;;25.27;5.30;;;7.80;99.90;;;;;;6150731;23;20395;-39
2022/01/14 12:46:02;;;;;;;30.85;5.55;;;7.80;99.90;;;;;;6148322;23;20025;-40
2022/01/14 12:48:51;;;;;;;25.13;5.53;;;7.80;99.90;;;;;;6078028;23;20022;-40
2022/01/14 12:51:20;;;;;;;21.73;5.30;;;7.80;99.90;;;;;;6143838;23;20056;-41
2022/01/14 12:54:13;;;;;;;23.40;6.07;;;7.80;99.90;;;;;;6145627;23;20512;-40
2022/01/14 12:56:39;;;;;;;24.33;6.00;;;7.80;99.90;;;;;;6133540;23;20029;-40
2022/01/14 12:59:25;;;;;;;23.57;5.57;;;7.80;99.90;;;;;;6101678;23;20036;-39
2022/01/14 13:01:55;;;;;;;24.97;5.87;;;7.90;99.90;;;;;;6174951;23;20028;-40
2022/01/14 13:04:40;;;;;;;24.07;6.10;;;7.90;99.90;;;;;;6178220;23;20407;-40
2022/01/14 13:07:24;;;;;;;25.50;5.90;;;7.90;99.90;;;;;;6134863;23;20096;-41
2022/01/14 13:09:53;;;;;;;26.13;5.60;;;7.90;99.90;;;;;;6156313;23;20021;-40
2022/01/14 13:12:23;;;;;;;23.77;5.60;;;7.90;99.90;;;;;;6151657;23;20079;-39
2022/01/14 13:14:57;;;;;;;26.73;6.13;;;7.90;99.90;;;;;;6151601;23;20456;-39
2022/01/14 13:17:42;;;;;;;33.13;6.37;;;7.90;99.90;;;;;;6140294;23;20025;-41
2022/01/14 13:20:14;;;;;;;35.50;6.20;;;7.90;99.90;;;;;;6181217;23;20017;-40
2022/01/14 13:22:50;;;;;;;25.77;6.30;;;7.90;99.90;;;;;;6131594;23;20041;-40
2022/01/14 13:25:28;;;;;;;28.20;6.30;;;7.90;99.90;;;;;;6164433;23;20017;-41
2022/01/14 13:28:05;;;;;;;33.13;7.17;;;7.90;99.90;;;;;;6148825;23;20021;-40
2022/01/14 13:30:53;;;;;;;34.47;7.40;;;7.90;99.90;;;;;;6180628;23;20053;-40
2022/01/14 13:33:22;;;;;;;29.63;7.03;;;7.90;99.90;;;;;;6138540;23;20048;-40
2022/01/14 13:36:05;;;;;;;30.20;6.83;;;7.90;99.90;;;;;;6167277;23;20040;-41
2022/01/14 13:38:33;;;;;;;27.90;6.83;;;7.90;99.90;;;;;;6147270;23;20087;-39
2022/01/14 13:41:05;;;;;;;28.30;6.37;;;7.90;99.90;;;;;;6107886;23;20080;-39
2022/01/14 13:43:40;;;;;;;39.00;7.03;;;7.90;99.90;;;;;;6157544;23;20498;-40
2022/01/14 13:46:19;;;;;;;26.30;6.80;;;7.90;99.90;;;;;;6153076;23;20072;-40
2022/01/14 13:48:52;;;;;;;35.47;6.47;;;7.90;99.90;;;;;;6151926;23;20029;-39
2022/01/14 13:51:38;;;;;;;41.08;6.85;;;7.90;99.90;;;;;;6032676;23;20031;-41
2022/01/14 13:54:05;;;;;;;30.03;6.33;;;7.90;99.90;;;;;;5997304;23;20091;-40
2022/01/14 13:56:37;;;;;;;29.50;6.17;;;7.90;99.90;;;;;;6014961;23;20862;-40
2022/01/14 13:59:20;;;;;;;30.77;6.43;;;7.90;99.90;;;;;;6030783;23;20031;-40
2022/01/14 14:01:59;;;;;;;33.60;7.10;;;7.90;99.90;;;;;;5988826;23;20126;-40
2022/01/14 14:04:34;;;;;;;32.97;6.87;;;7.90;99.90;;;;;;5997849;23;20056;-40
2022/01/14 14:07:19;;;;;;;29.60;7.20;;;7.90;99.90;;;;;;6004639;23;20452;-41
2022/01/14 14:10:34;;;;;;;34.07;7.07;;;7.90;99.90;;;;;;6014614;23;20052;-40
2022/01/14 14:13:17;;;;;;;33.93;7.13;;;8.00;99.90;;;;;;6034487;23;20027;-41
2022/01/14 14:15:48;;;;;;;36.30;7.80;;;7.90;99.90;;;;;;6031792;23;20023;-40
2022/01/14 14:18:39;;;;;;;31.47;7.43;;;7.90;99.90;;;;;;6019508;23;20039;-40
2022/01/14 14:21:28;;;;;;;29.80;7.33;;;7.90;99.90;;;;;;6033268;23;20019;-40
2022/01/14 14:23:57;;;;;;;27.17;7.00;;;7.90;99.90;;;;;;6182820;23;20032;-41
2022/01/14 14:26:31;;;;;;;29.00;6.80;;;7.90;99.90;;;;;;6149011;23;20339;-40
2022/01/14 14:29:22;;;;;;;34.20;7.63;;;7.90;99.90;;;;;;6136931;23;20026;-40
2022/01/14 14:31:55;;;;;;;30.63;7.20;;;7.90;99.90;;;;;;6178331;23;20092;-40
2022/01/14 14:34:24;;;;;;;36.80;7.87;;;7.90;99.90;;;;;;6103140;23;20121;-40
2022/01/14 14:36:51;;;;;;;34.20;8.27;;;7.90;99.90;;;;;;6169497;23;20535;-40
2022/01/14 14:39:17;;;;;;;33.67;7.97;;;7.90;99.90;;;;;;6182562;23;20373;-40
2022/01/14 14:41:45;;;;;;;44.03;8.10;;;7.90;99.90;;;;;;6152818;23;20031;-40
2022/01/14 14:44:11;;;;;;;27.90;7.27;;;7.90;99.90;;;;;;6179306;23;20021;-40
2022/01/14 14:46:50;;;;;;;35.63;8.50;;;7.80;99.90;;;;;;6172894;23;20054;-40
2022/01/14 14:49:17;;;;;;;32.67;6.97;;;7.90;99.90;;;;;;6179248;23;20032;-41
2022/01/14 14:51:43;;;;;;;30.67;7.17;;;7.90;99.90;;;;;;6180126;23;20067;-39
2022/01/14 14:54:11;;;;;;;28.83;6.87;;;7.80;99.90;;;;;;6142096;23;20021;-40
2022/01/14 14:56:47;;;;;;;36.87;7.07;;;7.90;99.90;;;;;;6173497;23;20040;-41
2022/01/14 14:59:23;;;;;;;32.87;6.97;;;7.90;99.90;;;;;;6180833;23;20025;-40
2022/01/14 15:01:49;;;;;;;29.63;7.03;;;7.80;99.90;;;;;;6158934;23;20080;-40
2022/01/14 15:04:23;;;;;;;27.67;7.53;;;7.80;99.90;;;;;;6123983;23;20252;-40
2022/01/14 15:06:50;;;;;;;29.10;6.70;;;7.80;99.90;;;;;;6140629;23;20013;-41
2022/01/14 15:09:16;;;;;;;33.07;7.53;;;7.80;99.90;;;;;;6098404;23;20029;-41
2022/01/14 15:11:51;;;;;;;29.83;8.13;;;7.80;99.90;;;;;;6130621;23;20254;-40
2022/01/14 15:14:25;;;;;;;33.27;8.27;;;7.80;99.90;;;;;;6104968;23;20166;-40
2022/01/14 15:19:38;;;;;;;32.03;8.17;;;7.80;99.90;;;;;;6124856;23;20171;-40
2022/01/14 15:22:05;;;;;;;33.17;8.13;;;7.80;99.90;;;;;;6155005;23;20013;-42
2022/01/14 15:24:43;;;;;;;36.90;7.77;;;7.90;99.90;;;;;;6150873;23;20061;-39
2022/01/14 15:27:11;;;;;;;33.83;7.77;;;7.80;99.90;;;;;;6113931;23;20300;-42
2022/01/14 15:29:38;;;;;;;30.40;8.27;;;7.80;99.90;;;;;;6128672;23;20108;-41
2022/01/14 15:32:12;;;;;;;41.70;9.63;;;7.70;99.90;;;;;;6126444;23;20064;-41
2022/01/14 15:34:38;;;;;;;39.37;9.27;;;7.80;99.90;;;;;;6128732;23;20044;-40
2022/01/14 15:37:05;;;;;;;37.20;8.77;;;7.80;99.90;;;;;;6139596;23;20446;-40
2022/01/14 15:39:41;;;;;;;41.10;8.97;;;7.80;99.90;;;;;;6144254;23;20264;-41
2022/01/14 15:42:07;;;;;;;40.60;8.90;;;7.80;99.90;;;;;;6141575;23;20025;-40
2022/01/14 15:44:38;;;;;;;36.53;8.80;;;7.80;99.90;;;;;;6149353;23;20029;-39
2022/01/14 15:47:04;;;;;;;42.83;9.00;;;7.80;99.90;;;;;;6105674;23;20021;-41
2022/01/14 15:49:31;;;;;;;41.33;8.77;;;7.80;99.90;;;;;;6118220;23;20037;-40
2022/01/14 15:51:57;;;;;;;40.40;8.60;;;7.80;99.90;;;;;;6121745;23;20035;-40
2022/01/14 15:54:23;;;;;;;37.97;8.37;;;7.70;99.90;;;;;;6118280;23;20025;-40
2022/01/14 15:56:49;;;;;;;42.37;9.43;;;7.80;99.90;;;;;;6133036;23;20076;-41
2022/01/14 15:59:15;;;;;;;33.73;8.37;;;7.80;99.90;;;;;;6116238;23;20021;-40
2022/01/14 16:01:41;;;;;;;39.90;9.00;;;7.80;99.90;;;;;;6163527;23;20215;-40
2022/01/14 16:04:07;;;;;;;32.23;8.57;;;7.80;99.90;;;;;;6145940;23;20020;-42
2022/01/14 16:06:33;;;;;;;36.23;8.53;;;7.80;99.90;;;;;;6132483;23;20021;-40
2022/01/14 16:08:58;;;;;;;37.27;8.50;;;7.70;99.90;;;;;;6167221;23;20110;-40
2022/01/14 16:11:25;;;;;;;32.17;8.47;;;7.70;99.90;;;;;;6171795;23;20432;-40
2022/01/14 16:13:58;;;;;;;29.30;8.50;;;7.80;99.90;;;;;;6171557;23;20029;-40
2022/01/14 16:16:25;;;;;;;32.73;7.97;;;7.80;99.90;;;;;;6133626;23;20061;-39
2022/01/14 16:18:51;;;;;;;37.40;8.47;;;7.70;99.90;;;;;;6141334;23;20032;-40
2022/01/14 16:21:19;;;;;;;30.83;7.93;;;7.70;99.90;;;;;;6174325;23;20013;-40
2022/01/14 16:23:44;;;;;;;29.67;8.03;;;7.70;99.90;;;;;;6173101;23;20107;-40
2022/01/14 16:26:10;;;;;;;34.37;8.17;;;7.70;99.90;;;;;;6167393;23;20491;-40
2022/01/14 16:28:36;;;;;;;31.57;8.03;;;7.70;99.90;;;;;;6122045;23;20025;-40
2022/01/14 16:31:01;;;;;;;24.73;7.67;;;7.80;99.90;;;;;;6174468;23;20024;-40
2022/01/14 16:33:30;;;;;;;28.13;8.67;;;7.70;99.90;;;;;;6173333;23;20511;-40
2022/01/14 16:35:58;;;;;;;31.47;8.90;;;7.70;99.90;;;;;;6173639;23;20025;-40
2022/01/14 16:38:25;;;;;;;32.77;9.30;;;7.70;99.90;;;;;;6157665;23;20083;-40
2022/01/14 16:40:53;;;;;;;29.70;9.30;;;7.60;99.90;;;;;;6173065;23;20053;-40
2022/01/14 16:43:21;;;;;;;25.43;8.30;;;7.70;99.90;;;;;;6172748;23;20431;-40
2022/01/14 16:45:52;;;;;;;37.43;9.63;;;7.70;99.90;;;;;;6173377;23;20054;-40
2022/01/14 16:48:19;;;;;;;24.97;7.73;;;7.70;99.90;;;;;;6120586;23;20025;-40
2022/01/14 16:50:46;;;;;;;31.10;8.70;;;7.70;99.90;;;;;;6171459;23;20025;-41
2022/01/14 16:53:12;;;;;;;26.33;7.87;;;7.70;99.90;;;;;;6173706;23;20025;-40
2022/01/14 16:55:39;;;;;;;33.33;7.87;;;7.70;99.90;;;;;;6174186;23;20053;-40
2022/01/14 16:58:08;;;;;;;32.10;9.03;;;7.70;99.90;;;;;;6082362;23;20017;-40
2022/01/14 17:00:34;;;;;;;39.73;8.87;;;7.70;99.90;;;;;;6162655;23;20021;-42
2022/01/14 17:03:03;;;;;;;32.83;9.60;;;7.70;99.90;;;;;;6148050;23;20021;-40
2022/01/14 17:05:29;;;;;;;27.13;8.83;;;7.70;99.90;;;;;;6148284;23;20017;-40
2022/01/14 17:07:55;;;;;;;32.50;9.10;;;7.70;99.90;;;;;;6153009;23;20492;-40
2022/01/14 17:10:20;;;;;;;28.83;8.77;;;7.70;99.90;;;;;;6147989;23;20021;-41
2022/01/14 17:12:46;;;;;;;23.37;8.63;;;7.70;99.90;;;;;;6122478;23;20032;-41
2022/01/14 17:15:12;;;;;;;25.73;7.97;;;7.70;99.90;;;;;;6147014;23;20076;-40
2022/01/14 17:17:38;;;;;;;26.47;8.43;;;7.70;99.90;;;;;;6129569;23;20025;-40
2022/01/14 17:20:06;;;;;;;28.90;8.50;;;7.70;99.90;;;;;;6174726;23;20029;-41
2022/01/14 17:22:32;;;;;;;25.93;8.23;;;7.70;99.90;;;;;;6146791;23;20029;-40
2022/01/14 17:24:57;;;;;;;32.20;8.03;;;7.60;99.90;;;;;;6174349;23;20028;-40
2022/01/14 17:27:23;;;;;;;19.43;7.77;;;7.60;99.90;;;;;;6155035;23;20033;-40
2022/01/14 17:29:49;;;;;;;25.00;7.90;;;7.60;99.90;;;;;;6145276;23;20029;-40
2022/01/14 17:32:16;;;;;;;21.33;8.10;;;7.70;99.90;;;;;;6170924;23;20013;-39
2022/01/14 17:34:42;;;;;;;23.17;8.03;;;7.70;99.90;;;;;;6146084;23;20527;-40
2022/01/14 17:37:08;;;;;;;23.23;8.33;;;7.70;99.90;;;;;;6128666;23;20017;-40
2022/01/14 17:39:34;;;;;;;17.77;7.40;;;7.60;99.90;;;;;;6173915;23;20092;-40
2022/01/14 17:42:00;;;;;;;20.47;8.10;;;7.60;99.90;;;;;;6146432;23;20040;-40
2022/01/14 17:44:30;;;;;;;21.57;6.83;;;7.60;99.90;;;;;;6171729;23;20024;-40
2022/01/14 17:46:57;;;;;;;18.07;7.37;;;7.60;99.90;;;;;;6155884;23;20027;-40
2022/01/14 17:49:24;;;;;;;22.37;7.53;;;7.60;99.90;;;;;;6145632;23;20540;-40
2022/01/14 17:51:51;;;;;;;20.87;7.60;;;7.60;99.90;;;;;;6147158;23;20035;-39
2022/01/14 17:54:19;;;;;;;17.20;7.63;;;7.50;99.90;;;;;;6172241;23;20031;-40
2022/01/14 17:56:46;;;;;;;15.77;7.00;;;7.60;99.90;;;;;;6156306;23;20041;-40
2022/01/14 17:59:13;;;;;;;17.70;7.07;;;7.60;99.90;;;;;;6131703;23;20076;-40
2022/01/14 18:01:39;;;;;;;11.87;6.57;;;7.50;99.90;;;;;;6173896;23;20546;-40
2022/01/14 18:04:05;;;;;;;16.40;5.10;;;7.60;99.90;;;;;;6173222;23;20017;-40
2022/01/14 18:06:32;;;;;;;12.30;4.30;;;7.60;99.90;;;;;;6157956;23;20075;-40
2022/01/14 18:08:58;;;;;;;11.93;3.47;;;7.60;99.90;;;;;;6171563;23;20021;-39
2022/01/14 18:11:31;;;;;;;12.87;3.50;;;7.50;99.90;;;;;;6174955;23;20032;-40
2022/01/14 18:14:01;;;;;;;7.47;3.07;;;7.50;99.90;;;;;;6147733;23;20029;-40
2022/01/14 18:16:28;;;;;;;9.30;3.20;;;7.50;99.90;;;;;;6159865;23;20107;-40
2022/01/14 18:18:53;;;;;;;10.27;2.87;;;7.50;99.90;;;;;;6141736;23;20402;-40
2022/01/14 18:21:20;;;;;;;7.47;2.93;;;7.50;99.90;;;;;;6173329;23;20118;-40
2022/01/14 18:27:27;;;;;;;8.80;2.70;;;7.50;99.90;;;;;;6140059;23;20554;-39
2022/01/14 18:29:53;;;;;;;7.47;2.93;;;7.50;99.90;;;;;;6162908;23;20024;-41
2022/01/14 18:32:19;;;;;;;8.40;3.10;;;7.50;99.90;;;;;;6167495;23;20104;-40
2022/01/14 18:34:45;;;;;;;8.53;2.43;;;7.50;99.90;;;;;;6169444;23;20492;-40
2022/01/14 18:37:10;;;;;;;7.47;2.87;;;7.50;99.90;;;;;;6149109;23;20017;-40
2022/01/14 18:39:36;;;;;;;4.77;2.30;;;7.50;99.90;;;;;;6154686;23;20277;-40
2022/01/14 18:42:02;;;;;;;7.73;2.57;;;7.40;99.90;;;;;;6140281;23;20056;-39
2022/01/14 18:44:28;;;;;;;6.93;2.43;;;7.40;99.90;;;;;;6161989;23;20036;-40
2022/01/14 18:46:53;;;;;;;7.27;2.30;;;7.50;99.90;;;;;;6114109;23;20021;-40
2022/01/14 18:49:19;;;;;;;6.87;2.67;;;7.50;99.90;;;;;;6134320;23;20032;-40
2022/01/14 18:51:47;;;;;;;5.63;1.90;;;7.50;99.90;;;;;;6109111;23;20024;-40
2022/01/14 18:54:14;;;;;;;8.63;2.07;;;7.50;99.90;;;;;;6159387;23;20027;-40
2022/01/14 18:56:40;;;;;;;4.87;1.80;;;7.40;99.90;;;;;;6133363;23;20465;-40
2022/01/14 18:59:06;;;;;;;5.20;1.90;;;7.40;99.90;;;;;;6161176;23;20024;-40
2022/01/14 19:01:32;;;;;;;6.57;2.23;;;7.40;99.90;;;;;;6154479;23;20331;-40
2022/01/14 19:03:58;;;;;;;9.47;3.30;;;7.40;99.90;;;;;;6160835;23;20550;-40
2022/01/14 19:06:24;;;;;;;7.93;4.07;;;7.40;99.90;;;;;;6166946;23;20021;-41
2022/01/14 19:08:49;;;;;;;13.90;5.43;;;7.40;99.90;;;;;;6140879;23;20025;-40
2022/01/14 19:11:16;;;;;;;15.77;6.80;;;7.40;99.90;;;;;;6123946;23;20194;-38
2022/01/14 19:13:51;;;;;;;13.63;5.73;;;7.40;99.90;;;;;;6167628;23;20017;-39
2022/01/14 19:16:19;;;;;;;13.70;6.47;;;7.40;99.90;;;;;;6141614;23;20523;-38
2022/01/14 19:18:45;;;;;;;14.23;6.53;;;7.40;99.90;;;;;;6166354;23;20340;-38
2022/01/14 19:21:11;;;;;;;9.97;5.80;;;7.40;99.90;;;;;;6139164;23;20042;-39
2022/01/14 19:23:36;;;;;;;9.43;5.93;;;7.40;99.90;;;;;;6164675;23;20305;-41
2022/01/14 19:26:02;;;;;;;14.43;6.20;;;7.40;99.90;;;;;;6165647;23;20621;-41
2022/01/14 19:28:28;;;;;;;13.57;6.00;;;7.40;99.90;;;;;;6167176;23;20017;-41
2022/01/14 19:30:54;;;;;;;8.27;4.70;;;7.40;99.90;;;;;;6164127;23;20322;-39
2022/01/14 19:33:20;;;;;;;11.57;4.20;;;7.40;99.90;;;;;;6166074;23;20404;-38
2022/01/14 19:35:48;;;;;;;10.07;4.00;;;7.40;99.90;;;;;;6166485;23;20072;-38
2022/01/14 19:38:15;;;;;;;6.10;2.90;;;7.30;99.90;;;;;;6146887;23;20468;-38
2022/01/14 19:40:41;;;;;;;4.33;2.10;;;7.30;99.90;;;;;;6161174;23;20025;-39
2022/01/14 19:43:08;;;;;;;6.83;2.17;;;7.30;99.90;;;;;;5045184;23;10000025;-38
2022/01/14 19:45:37;;;;;;;8.30;1.97;;;7.30;99.90;;;;;;6109985;23;20021;-39
2022/01/14 19:48:04;;;;;;;9.47;2.27;;;7.30;99.90;;;;;;6128413;23;20069;-39
2022/01/14 19:50:30;;;;;;;5.00;1.63;;;7.20;99.90;;;;;;6149141;23;20418;-39
2022/01/14 19:52:56;;;;;;;5.87;1.80;;;7.20;99.90;;;;;;6163016;23;20080;-39
2022/01/14 19:55:23;;;;;;;5.10;1.67;;;7.20;99.90;;;;;;6163613;23;20052;-38
2022/01/14 19:57:48;;;;;;;6.10;1.80;;;7.20;99.90;;;;;;6145494;23;20027;-38
2022/01/14 20:00:15;;;;;;;3.63;1.73;;;7.20;99.90;;;;;;6166452;23;20103;-40
2022/01/14 20:02:45;;;;;;;5.77;2.10;;;7.20;99.90;;;;;;6169349;23;20039;-38
2022/01/14 20:05:13;;;;;;;5.57;1.93;;;7.10;99.90;;;;;;6169343;23;20025;-38
2022/01/14 20:07:39;;;;;;;4.60;1.80;;;7.20;99.90;;;;;;6158784;23;20025;-38
2022/01/14 20:10:06;;;;;;;4.33;1.90;;;7.20;99.90;;;;;;6178100;23;20017;-39
2022/01/14 20:12:35;;;;;;;6.90;2.40;;;7.10;99.90;;;;;;6151829;23;20713;-39
2022/01/14 20:15:02;;;;;;;5.07;2.23;;;7.10;99.90;;;;;;6165556;23;20020;-38
2022/01/14 20:17:28;;;;;;;5.20;2.13;;;7.10;99.90;;;;;;6160761;23;20024;-38
2022/01/14 20:19:54;;;;;;;7.87;2.80;;;7.20;99.90;;;;;;6168298;23;20021;-38
2022/01/14 20:22:19;;;;;;;4.83;2.13;;;7.10;99.90;;;;;;6195690;23;20086;-39
2022/01/14 20:24:45;;;;;;;5.60;2.40;;;7.10;99.90;;;;;;6169599;23;20174;-39
2022/01/14 20:27:11;;;;;;;6.37;2.60;;;7.10;99.90;;;;;;6150053;23;20353;-39
2022/01/14 20:29:36;;;;;;;7.77;2.90;;;7.10;99.90;;;;;;6196783;23;20185;-39
2022/01/14 20:32:02;;;;;;;7.57;3.20;;;7.10;99.90;;;;;;6144796;23;20322;-38
2022/01/14 20:34:28;;;;;;;7.83;3.40;;;7.10;99.90;;;;;;6197267;23;20031;-39
2022/01/14 20:36:53;;;;;;;7.57;3.30;;;7.00;99.90;;;;;;6177798;23;20021;-39
2022/01/14 20:39:19;;;;;;;6.20;2.97;;;7.00;99.90;;;;;;6170487;23;20016;-38
2022/01/14 20:41:46;;;;;;;9.43;4.13;;;7.00;99.90;;;;;;6196692;23;20020;-38
2022/01/14 20:44:14;;;;;;;8.07;3.43;;;6.90;99.90;;;;;;6198458;23;20025;-39
2022/01/14 20:46:40;;;;;;;8.20;4.57;;;7.00;99.90;;;;;;6154933;23;20052;-38
2022/01/14 20:49:08;;;;;;;8.10;5.03;;;7.00;99.90;;;;;;6196659;23;20025;-39
2022/01/14 20:51:36;;;;;;;8.40;4.97;;;7.00;99.90;;;;;;6199998;23;20052;-39
2022/01/14 20:54:02;;;;;;;9.97;5.33;;;7.00;99.90;;;;;;6197746;23;20490;-38
2022/01/14 20:56:29;;;;;;;11.63;5.73;;;7.00;99.90;;;;;;6183774;23;20047;-38
2022/01/14 20:58:56;;;;;;;9.03;6.10;;;7.00;99.90;;;;;;6194496;23;20400;-38
2022/01/14 21:01:23;;;;;;;10.50;6.00;;;7.00;99.90;;;;;;6199540;23;20409;-38
2022/01/14 21:03:49;;;;;;;8.70;5.70;;;7.00;99.90;;;;;;6198329;23;20036;-38
2022/01/14 21:06:16;;;;;;;9.73;6.17;;;7.00;99.90;;;;;;6160808;23;20461;-38
2022/01/14 21:08:42;;;;;;;11.47;5.90;;;7.10;99.90;;;;;;6191635;23;20337;-39
2022/01/14 21:11:08;;;;;;;12.63;6.50;;;6.90;99.90;;;;;;6199776;23;20121;-38
2022/01/14 21:13:34;;;;;;;11.13;6.20;;;7.00;99.90;;;;;;6198958;23;20060;-38
2022/01/14 21:16:00;;;;;;;11.40;6.20;;;7.00;99.90;;;;;;6199536;23;20059;-39
2022/01/14 21:18:36;;;;;;;10.87;6.23;;;7.00;99.90;;;;;;6176373;23;20490;-40
2022/01/14 21:21:02;;;;;;;12.93;6.63;;;6.90;99.90;;;;;;6172121;23;20016;-39
2022/01/14 21:23:30;;;;;;;12.90;6.57;;;6.90;99.90;;;;;;6196999;23;20131;-40
2022/01/14 21:25:57;;;;;;;13.43;6.37;;;6.90;99.90;;;;;;6172422;23;20321;-38
2022/01/14 21:28:23;;;;;;;9.57;6.27;;;6.90;99.90;;;;;;6182922;23;20095;-38
2022/01/14 21:30:50;;;;;;;9.57;5.37;;;6.90;99.90;;;;;;6203955;23;20017;-39
2022/01/14 21:33:16;;;;;;;9.63;5.77;;;6.80;99.90;;;;;;6202992;23;20107;-38
2022/01/14 21:35:42;;;;;;;10.13;5.50;;;6.90;99.90;;;;;;6202652;23;20082;-38
2022/01/14 21:38:10;;;;;;;9.97;5.50;;;6.90;99.90;;;;;;6184478;23;20019;-39
2022/01/14 21:40:36;;;;;;;10.87;5.60;;;6.90;99.90;;;;;;6205112;23;20617;-39
2022/01/14 21:43:03;;;;;;;10.00;5.40;;;6.90;99.90;;;;;;6180372;23;20074;-39
2022/01/14 21:45:29;;;;;;;10.20;5.10;;;6.80;99.90;;;;;;6208091;23;20460;-38
2022/01/14 21:47:56;;;;;;;8.50;5.10;;;6.90;99.90;;;;;;6162103;23;20088;-38
2022/01/14 21:50:23;;;;;;;8.47;4.80;;;6.80;99.90;;;;;;6207804;23;20159;-39
2022/01/14 21:52:50;;;;;;;8.27;4.80;;;6.80;99.90;;;;;;6177062;23;20028;-39
2022/01/14 21:55:16;;;;;;;10.97;6.23;;;6.80;99.90;;;;;;6205669;23;20028;-39
2022/01/14 21:57:46;;;;;;;8.47;5.63;;;6.80;99.90;;;;;;6185494;23;20428;-39
2022/01/14 22:00:14;;;;;;;9.80;5.77;;;6.90;99.90;;;;;;6179591;23;20368;-39
2022/01/14 22:02:40;;;;;;;12.60;6.63;;;6.80;99.90;;;;;;6180354;23;20013;-38
2022/01/14 22:05:06;;;;;;;12.33;6.30;;;6.80;99.90;;;;;;6209563;23;20522;-38
2022/01/14 22:07:32;;;;;;;11.93;6.03;;;6.80;99.90;;;;;;6189726;23;20059;-39
2022/01/14 22:10:00;;;;;;;10.03;6.37;;;6.80;99.90;;;;;;6208332;23;20375;-39
2022/01/14 22:12:30;;;;;;;8.20;5.33;;;6.80;99.90;;;;;;6209125;23;20025;-39
2022/01/14 22:15:13;;;;;;;9.52;4.75;;;6.80;99.90;;;;;;6209250;23;20013;-39
2022/01/14 22:17:40;;;;;;;12.87;6.20;;;6.80;99.90;;;;;;6189327;23;20070;-38
2022/01/14 22:20:11;;;;;;;10.13;6.27;;;6.80;99.90;;;;;;6208947;23;20074;-39
2022/01/14 22:22:39;;;;;;;10.65;6.10;;;6.80;99.90;;;;;;6209011;23;20016;-39
2022/01/14 22:25:07;;;;;;;10.00;5.93;;;6.80;99.90;;;;;;6209196;23;20109;-39
2022/01/14 22:27:32;;;;;;;11.37;6.93;;;6.80;99.90;;;;;;6162453;23;20020;-39
2022/01/14 22:29:58;;;;;;;9.83;6.77;;;6.80;99.90;;;;;;6208184;23;20601;-39
2022/01/14 22:32:24;;;;;;;13.27;7.20;;;6.80;99.90;;;;;;6208140;23;20025;-39
2022/01/14 22:34:50;;;;;;;13.23;8.20;;;6.80;99.90;;;;;;6209205;23;20032;-39
2022/01/14 22:37:16;;;;;;;13.03;8.10;;;6.80;99.90;;;;;;6190112;23;20044;-39
2022/01/14 22:39:41;;;;;;;12.70;7.50;;;6.80;99.90;;;;;;6208748;23;20448;-39
2022/01/14 22:42:08;;;;;;;10.63;6.80;;;6.80;99.90;;;;;;6208290;23;20083;-40
2022/01/14 22:44:35;;;;;;;7.37;5.90;;;6.80;99.90;;;;;;6209182;23;20012;-39
2022/01/14 22:47:01;;;;;;;10.30;6.53;;;6.80;99.90;;;;;;6190299;23;20029;-39
2022/01/14 22:49:27;;;;;;;10.53;6.40;;;6.80;99.90;;;;;;6207344;23;20452;-38
2022/01/14 22:51:53;;;;;;;10.27;6.73;;;6.80;99.90;;;;;;6207892;23;20020;-39
2022/01/14 22:54:19;;;;;;;9.70;5.90;;;6.80;99.90;;;;;;6207736;23;20452;-39
2022/01/14 22:56:49;;;;;;;7.63;4.77;;;6.80;99.90;;;;;;6190150;23;20012;-39
2022/01/14 22:59:15;;;;;;;6.73;4.30;;;6.80;99.90;;;;;;6180992;23;20052;-39
2022/01/14 23:01:42;;;;;;;7.50;4.60;;;6.80;99.90;;;;;;6207786;23;20025;-39
2022/01/14 23:04:08;;;;;;;5.97;3.97;;;6.90;99.90;;;;;;6208088;23;20373;-39
2022/01/14 23:06:35;;;;;;;5.60;3.47;;;6.80;99.90;;;;;;6191585;23;20024;-39
2022/01/14 23:09:01;;;;;;;5.47;3.70;;;6.80;99.90;;;;;;6205553;23;20044;-39
2022/01/14 23:11:27;;;;;;;5.83;3.93;;;6.80;99.90;;;;;;6209250;23;20022;-39
2022/01/14 23:13:53;;;;;;;5.77;3.90;;;6.80;99.90;;;;;;6207631;23;20021;-39
2022/01/14 23:16:18;;;;;;;5.73;3.07;;;6.80;99.90;;;;;;6169084;23;20024;-39